Terminal Aerodrome Forecast
Issued by NWS

Home | Current Version | Previous Version | Text Only | Print | Product List | Glossary On
Versions: 1 2 3 4 5 6 7 8 9 10 11 12 13
000
FTUS46 KHNX 310500
TAFVIS
TAF
KVIS 310530Z 3106/0106 VRB03KT P6SM BKN150
     FM310800 VRB04KT P6SM FEW150
     FM312000 29006KT P6SM SKC=

USA.gov is the U.S. government's official web portal to all federal, state and local government web resources and services.